MET'MAP v2.0
soon released !

Expected late october,
this new version will be
more efficient, smarter,
and hosted on a brand new
server x3 powerfull...
...and still free !


Not compatible ?
Try the mobile version !

LOG IN : | Subscribe | Disclaimer | Who is Orbifly ? |
ICAO code :

TAF - LRCV Craiova Airport - 31 May 2020 03:43 UTC - Data Source NOAA   


- Airport Elevation : 626 ft
- IATA code : CRA
- No reported NOTAMs.


LRCV - Craiova Airport

Latest METAR recorded : 2015/08/11 08:00 LRCV 110800Z 27004KT 240V320 CAVOK 29/13 Q1013
TAF TAF LRCV
Valid from the 31 at 00:00 until the 31 at 09:00 UTC


302300Z 3100/3109 27012KT CAVOK

Source NOAA


MET'MAP, your aeronautical weather chart ! - Copyright ORBIFLY December 2007

Programming & Development : Alexandra Zaïnal
Co-Developer : Marc-Olivier Méhu
Technical & hardware support : Manuel Goepfert
Concept & Financing : Baudouin d'Aumeries